createdAt,value
2022-09-26T00:01:10.343Z,83.77
2022-09-26T00:03:36.868Z,83.41
2022-09-26T00:06:08.546Z,83.48
2022-09-26T00:08:36.805Z,83.35
2022-09-26T00:11:05.856Z,83.68
2022-09-26T00:13:34.983Z,83.57
2022-09-26T00:16:01.832Z,83.46
2022-09-26T00:18:28.460Z,84.17
2022-09-26T00:21:05.951Z,83.88
2022-09-26T00:23:33.301Z,83.81
2022-09-26T00:26:00.156Z,83.69
2022-09-26T00:28:27.390Z,83.60
2022-09-26T00:30:54.678Z,84.19
2022-09-26T00:33:21.267Z,84.35
2022-09-26T00:35:52.393Z,84.73
2022-09-26T00:38:19.486Z,84.62
2022-09-26T00:40:47.063Z,84.08
2022-09-26T00:43:34.003Z,84.33
2022-09-26T00:46:30.343Z,84.24
2022-09-26T00:49:07.858Z,84.82
2022-09-26T00:51:37.835Z,84.51
2022-09-26T00:54:06.491Z,84.01
2022-09-26T00:56:36.451Z,84.32
2022-09-26T00:59:07.646Z,84.65
2022-09-26T01:01:34.524Z,84.04
2022-09-26T01:04:03.926Z,84.30
2022-09-26T01:06:31.145Z,84.50
2022-09-26T01:09:04.813Z,84.30
2022-09-26T01:11:31.937Z,83.99
2022-09-26T01:13:59.024Z,83.78
2022-09-26T01:16:25.563Z,83.42
2022-09-26T01:18:52.098Z,82.86
2022-09-26T01:21:59.172Z,83.26
2022-09-26T01:24:56.739Z,82.61
2022-09-26T01:27:50.618Z,83.26
2022-09-26T01:30:21.662Z,83.48
2022-09-26T01:32:57.794Z,83.32
2022-09-26T01:35:50.072Z,83.27
2022-09-26T01:38:33.191Z,83.12
2022-09-26T01:41:36.939Z,82.98
2022-09-26T01:44:16.144Z,82.78
2022-09-26T01:46:51.037Z,82.35
2022-09-26T01:49:46.539Z,82.69
2022-09-26T01:52:38.673Z,82.47
2022-09-26T01:55:16.412Z,82.58
2022-09-26T01:57:50.201Z,82.37
2022-09-26T02:00:18.896Z,82.56
2022-09-26T02:02:48.224Z,82.64
2022-09-26T02:05:33.360Z,82.82
2022-09-26T02:08:12.672Z,83.05
2022-09-26T02:10:52.613Z,83.44
2022-09-26T02:13:58.036Z,83.89
2022-09-26T02:16:38.808Z,83.78
2022-09-26T02:19:16.632Z,83.66
2022-09-26T02:21:43.876Z,83.24
2022-09-26T02:24:10.486Z,83.97
2022-09-26T02:26:37.112Z,84.17
2022-09-26T02:29:04.543Z,84.21
2022-09-26T02:31:36.565Z,83.64
2022-09-26T02:34:04.607Z,84.14
2022-09-26T02:36:33.674Z,84.04
2022-09-26T02:39:01.477Z,84.07
2022-09-26T02:41:41.519Z,84.37
2022-09-26T02:44:29.060Z,84.49
2022-09-26T02:47:38.726Z,83.95
2022-09-26T02:50:37.516Z,85.06
2022-09-26T02:53:21.672Z,85.19
2022-09-26T02:56:03.715Z,85.62
2022-09-26T02:58:49.120Z,85.84
2022-09-26T03:01:31.478Z,86.41
2022-09-26T03:04:36.538Z,86.11
2022-09-26T03:07:10.363Z,85.61
2022-09-26T03:09:37.524Z,86.17
2022-09-26T03:12:06.605Z,86.36
2022-09-26T03:14:35.538Z,86.16
2022-09-26T03:17:03.433Z,86.09
2022-09-26T03:19:39.327Z,86.49
2022-09-26T03:22:05.824Z,86.79
2022-09-26T03:24:35.541Z,87.16
2022-09-26T03:27:05.102Z,87.59
2022-09-26T03:29:34.547Z,87.53
2022-09-26T03:32:01.454Z,87.07
2022-09-26T03:34:28.186Z,87.05
2022-09-26T03:36:54.663Z,87.62
2022-09-26T03:39:23.165Z,88.24
2022-09-26T03:41:49.749Z,89.15
2022-09-26T03:44:16.345Z,89.01
2022-09-26T03:46:47.158Z,89.63
2022-09-26T03:49:13.718Z,89.44
2022-09-26T03:51:40.308Z,89.17
2022-09-26T03:54:06.872Z,88.88
2022-09-26T03:56:33.324Z,89.07
2022-09-26T03:59:00.905Z,88.94
2022-09-26T04:01:29.836Z,88.05
2022-09-26T04:03:56.746Z,88.67
2022-09-26T04:06:23.543Z,89.04
2022-09-26T04:08:52.247Z,89.16
2022-09-26T04:11:22.011Z,89.64
2022-09-26T04:13:52.299Z,89.83
2022-09-26T04:16:23.862Z,89.77
2022-09-26T04:18:56.712Z,90.08
2022-09-26T04:21:24.757Z,90.34
2022-09-26T04:23:53.246Z,90.67
2022-09-26T04:26:23.679Z,91.14
2022-09-26T04:28:52.379Z,90.86
2022-09-26T04:31:21.469Z,90.83
2022-09-26T04:33:48.276Z,91.17
2022-09-26T04:36:17.376Z,91.05
2022-09-26T04:38:43.896Z,91.12
2022-09-26T04:41:15.845Z,91.14
2022-09-26T04:43:42.793Z,91.47
2022-09-26T04:46:18.571Z,91.38
2022-09-26T04:48:48.581Z,91.20
2022-09-26T04:51:17.007Z,90.71
2022-09-26T04:53:43.768Z,90.97
2022-09-26T04:56:12.874Z,91.09
2022-09-26T04:58:41.775Z,91.05
2022-09-26T05:01:10.899Z,91.32
2022-09-26T05:03:37.875Z,91.17
2022-09-26T05:06:09.078Z,91.31
2022-09-26T05:08:46.623Z,91.49
2022-09-26T05:11:14.984Z,91.67
2022-09-26T05:13:41.889Z,91.47
2022-09-26T05:16:08.988Z,91.39
2022-09-26T05:18:37.529Z,90.79
2022-09-26T05:21:05.994Z,89.82
2022-09-26T05:23:51.381Z,90.15
2022-09-26T05:26:36.546Z,90.18
2022-09-26T05:29:08.360Z,90.09
2022-09-26T05:31:37.613Z,90.11
2022-09-26T05:34:12.206Z,90.08
2022-09-26T05:36:42.725Z,90.49
2022-09-26T05:39:29.695Z,90.66
2022-09-26T05:41:57.261Z,90.83
2022-09-26T05:44:23.876Z,90.33
2022-09-26T05:46:51.956Z,90.78
2022-09-26T05:49:18.702Z,91.01
2022-09-26T05:51:46.617Z,90.42
2022-09-26T05:54:13.577Z,90.89
2022-09-26T05:56:40.268Z,90.59
2022-09-26T05:59:07.955Z,90.58
2022-09-26T06:01:35.062Z,90.32
2022-09-26T06:04:05.025Z,90.25
2022-09-26T06:06:31.496Z,90.29
2022-09-26T06:08:58.065Z,90.54
2022-09-26T06:11:31.267Z,90.68
2022-09-26T06:14:00.727Z,90.71
2022-09-26T06:16:28.590Z,90.86
2022-09-26T06:18:55.930Z,90.35
2022-09-26T06:21:23.120Z,90.34
2022-09-26T06:23:49.898Z,90.69
2022-09-26T06:26:21.201Z,90.57
2022-09-26T06:28:50.366Z,90.69
2022-09-26T06:31:18.972Z,90.37
2022-09-26T06:33:53.321Z,90.22
2022-09-26T06:36:20.235Z,90.88
2022-09-26T06:38:46.772Z,90.67
2022-09-26T06:41:15.051Z,91.07
2022-09-26T06:43:41.508Z,91.49
2022-09-26T06:46:10.814Z,91.34
2022-09-26T06:48:37.263Z,91.14
2022-09-26T06:51:04.016Z,91.42
2022-09-26T06:53:31.431Z,91.40
2022-09-26T06:56:02.040Z,90.62
2022-09-26T06:58:28.637Z,90.44
2022-09-26T07:00:55.921Z,89.27
2022-09-26T07:03:25.439Z,88.93
2022-09-26T07:05:57.520Z,88.93
2022-09-26T07:08:43.293Z,88.47
2022-09-26T07:11:32.595Z,87.29
2022-09-26T07:14:01.943Z,87.09
2022-09-26T07:16:29.201Z,86.74
2022-09-26T07:19:05.283Z,85.90
2022-09-26T07:21:35.315Z,86.33
2022-09-26T07:24:02.061Z,86.92
2022-09-26T07:26:28.485Z,87.06
2022-09-26T07:28:55.302Z,86.44
2022-09-26T07:31:23.660Z,85.88
2022-09-26T07:33:50.394Z,86.14
2022-09-26T07:36:18.555Z,86.07
2022-09-26T07:38:48.554Z,85.65
2022-09-26T07:41:15.374Z,84.42
2022-09-26T07:44:30.347Z,83.73
2022-09-26T07:46:47.120Z,84.12
2022-09-26T07:49:32.329Z,82.85
2022-09-26T07:52:00.682Z,82.42
2022-09-26T07:54:27.294Z,82.09
2022-09-26T07:56:54.468Z,80.67
2022-09-26T07:59:22.877Z,80.14
2022-09-26T08:01:49.648Z,80.04
2022-09-26T08:04:16.972Z,80.62
2022-09-26T08:06:43.746Z,80.29
2022-09-26T08:09:10.268Z,80.34
2022-09-26T08:11:38.460Z,79.60
2022-09-26T08:14:04.949Z,76.98
2022-09-26T08:16:33.366Z,78.12
2022-09-26T08:19:01.671Z,76.80
2022-09-26T08:21:28.263Z,76.28
2022-09-26T08:23:55.875Z,75.70
2022-09-26T08:26:23.996Z,75.33
2022-09-26T08:28:50.611Z,72.82
2022-09-26T08:31:18.004Z,73.69
2022-09-26T08:33:44.628Z,71.83
2022-09-26T08:36:13.320Z,71.42
2022-09-26T08:38:40.028Z,68.44
2022-09-26T08:41:47.411Z,68.29
2022-09-26T08:44:53.112Z,67.29
2022-09-26T08:47:43.010Z,68.32
2022-09-26T08:50:32.564Z,67.23
2022-09-26T08:53:11.682Z,67.99
2022-09-26T08:55:44.590Z,67.76
2022-09-26T08:58:17.094Z,67.77
2022-09-26T09:00:44.646Z,65.94
2022-09-26T09:03:26.027Z,67.16
2022-09-26T09:05:59.345Z,67.71
2022-09-26T09:08:35.173Z,66.19
2022-09-26T09:11:14.679Z,64.07
2022-09-26T09:14:03.027Z,63.62
2022-09-26T09:16:58.701Z,64.30
2022-09-26T09:19:55.760Z,65.74
2022-09-26T09:22:57.844Z,64.47
2022-09-26T09:25:49.054Z,62.11
2022-09-26T09:28:34.272Z,62.04
2022-09-26T09:31:13.640Z,65.51
2022-09-26T09:33:50.625Z,63.29
2022-09-26T09:36:40.546Z,62.38
2022-09-26T09:39:09.658Z,63.47
2022-09-26T09:41:50.636Z,60.28
2022-09-26T09:44:25.289Z,58.80
2022-09-26T09:46:51.853Z,59.22
2022-09-26T09:49:23.809Z,57.44
2022-09-26T09:52:01.248Z,58.39
2022-09-26T09:55:03.487Z,53.85
2022-09-26T09:57:37.079Z,55.97
2022-09-26T10:00:20.235Z,55.78
2022-09-26T10:03:02.275Z,55.33
2022-09-26T10:05:44.289Z,55.69
2022-09-26T10:08:17.773Z,57.96
2022-09-26T10:11:09.276Z,54.27
2022-09-26T10:13:36.970Z,52.87
2022-09-26T10:16:08.160Z,58.01
2022-09-26T10:19:03.916Z,54.95
2022-09-26T10:21:42.692Z,54.09
2022-09-26T10:24:34.399Z,55.16
2022-09-26T10:27:19.078Z,50.16
2022-09-26T10:29:45.589Z,52.07
2022-09-26T10:32:12.291Z,52.53
2022-09-26T10:34:39.998Z,51.48
2022-09-26T10:37:30.044Z,47.79
2022-09-26T10:40:17.369Z,47.51
2022-09-26T10:42:47.163Z,50.05
2022-09-26T10:45:18.050Z,49.34
2022-09-26T10:47:46.489Z,50.82
2022-09-26T10:50:27.861Z,49.47
2022-09-26T10:53:03.272Z,47.87
2022-09-26T10:55:38.375Z,47.21
2022-09-26T10:58:13.766Z,47.14
2022-09-26T11:00:43.957Z,45.87
2022-09-26T11:03:16.761Z,45.09
2022-09-26T11:05:57.437Z,45.22
2022-09-26T11:08:38.265Z,47.20
2022-09-26T11:11:12.619Z,48.29
2022-09-26T11:13:48.014Z,49.75
2022-09-26T11:16:19.267Z,50.25
2022-09-26T11:19:11.941Z,51.44
2022-09-26T11:21:51.491Z,51.82
2022-09-26T11:24:31.197Z,52.42
2022-09-26T11:27:21.356Z,53.65
2022-09-26T11:30:09.403Z,54.26
2022-09-26T11:32:41.180Z,50.30
2022-09-26T11:35:17.973Z,51.21
2022-09-26T11:38:07.308Z,50.24
2022-09-26T11:40:33.754Z,52.12
2022-09-26T11:43:15.241Z,49.67
2022-09-26T11:46:04.604Z,50.64
2022-09-26T11:48:45.560Z,47.72
2022-09-26T11:51:33.280Z,48.68
2022-09-26T11:54:15.005Z,48.90
2022-09-26T11:56:53.760Z,49.87
2022-09-26T11:59:40.825Z,47.81
2022-09-26T12:02:32.644Z,48.39
2022-09-26T12:05:14.143Z,48.25
2022-09-26T12:08:19.287Z,48.78
2022-09-26T12:11:09.872Z,51.53
2022-09-26T12:13:54.791Z,50.17
2022-09-26T12:16:46.570Z,48.52
2022-09-26T12:19:32.316Z,49.13
2022-09-26T12:22:28.612Z,47.87
2022-09-26T12:25:20.307Z,46.58
2022-09-26T12:28:09.877Z,45.49
2022-09-26T12:31:09.615Z,45.09
2022-09-26T12:34:14.931Z,48.56
2022-09-26T12:37:06.016Z,46.13
2022-09-26T12:39:35.373Z,47.88
2022-09-26T12:42:28.229Z,49.71
2022-09-26T12:45:09.837Z,47.25
2022-09-26T12:48:07.439Z,48.73
2022-09-26T12:50:55.411Z,48.14
2022-09-26T12:53:48.367Z,47.28
2022-09-26T12:56:26.749Z,51.51
2022-09-26T12:59:23.926Z,52.53
2022-09-26T13:02:08.158Z,50.89
2022-09-26T13:04:52.981Z,54.01
2022-09-26T13:07:31.545Z,51.58
2022-09-26T13:10:13.115Z,51.17
2022-09-26T13:13:02.610Z,49.26
2022-09-26T13:15:40.018Z,50.54
2022-09-26T13:18:23.002Z,52.01
2022-09-26T13:20:58.871Z,51.32
2022-09-26T13:23:34.935Z,50.49
2022-09-26T13:26:08.881Z,50.39
2022-09-26T13:29:06.515Z,49.76
2022-09-26T13:31:41.197Z,49.17
2022-09-26T13:34:24.985Z,48.99
2022-09-26T13:36:52.632Z,47.94
2022-09-26T13:39:33.172Z,51.37
2022-09-26T13:42:08.872Z,48.17
2022-09-26T13:45:11.813Z,49.66
2022-09-26T13:47:49.427Z,47.72
2022-09-26T13:50:24.999Z,50.82
2022-09-26T13:53:20.344Z,50.34
2022-09-26T13:56:25.671Z,48.01
2022-09-26T13:59:11.887Z,48.08
2022-09-26T14:01:42.206Z,49.89
2022-09-26T14:04:19.205Z,47.80
2022-09-26T14:07:02.855Z,51.40
2022-09-26T14:09:52.460Z,50.54
2022-09-26T14:12:31.266Z,52.89
2022-09-26T14:15:20.874Z,54.80
2022-09-26T14:17:47.434Z,54.34
2022-09-26T14:20:27.569Z,55.15
2022-09-26T14:22:56.943Z,53.77
2022-09-26T14:25:45.358Z,53.39
2022-09-26T14:28:34.678Z,53.63
2022-09-26T14:31:26.263Z,53.45
2022-09-26T14:34:16.710Z,54.44
2022-09-26T14:36:45.479Z,51.94
2022-09-26T14:39:36.713Z,49.78
2022-09-26T14:42:17.475Z,49.60
2022-09-26T14:44:55.536Z,47.25
2022-09-26T14:47:22.550Z,46.91
2022-09-26T14:50:05.450Z,43.79
2022-09-26T14:52:34.123Z,44.19
2022-09-26T14:55:06.107Z,44.23
2022-09-26T14:57:35.131Z,45.38
2022-09-26T15:00:02.669Z,45.57
2022-09-26T15:02:41.011Z,44.60
2022-09-26T15:05:11.344Z,46.63
2022-09-26T15:07:50.450Z,46.28
2022-09-26T15:10:28.119Z,46.44
2022-09-26T15:13:36.373Z,46.22
2022-09-26T15:16:21.027Z,46.81
2022-09-26T15:19:05.399Z,48.27
2022-09-26T15:21:40.607Z,47.98
2022-09-26T15:24:26.696Z,48.17
2022-09-26T15:26:56.125Z,48.29
2022-09-26T15:29:23.237Z,48.13
2022-09-26T15:31:51.266Z,48.14
2022-09-26T15:34:21.921Z,49.60
2022-09-26T15:36:55.151Z,50.66
2022-09-26T15:39:30.956Z,51.64
2022-09-26T15:42:39.100Z,52.51
2022-09-26T15:45:27.658Z,52.45
2022-09-26T15:47:56.654Z,52.93
2022-09-26T15:50:37.016Z,52.89
2022-09-26T15:53:26.867Z,53.93
2022-09-26T15:56:01.528Z,54.32
2022-09-26T15:58:34.346Z,53.67
2022-09-26T16:01:01.388Z,55.46
2022-09-26T16:03:28.134Z,53.78
2022-09-26T16:05:57.795Z,53.98
2022-09-26T16:08:32.389Z,54.93
2022-09-26T16:11:03.174Z,55.17
2022-09-26T16:13:37.427Z,53.69
2022-09-26T16:16:13.011Z,54.64
2022-09-26T16:18:47.478Z,54.22
2022-09-26T16:21:28.939Z,54.94
2022-09-26T16:23:58.307Z,55.26
2022-09-26T16:26:33.120Z,56.62
2022-09-26T16:29:00.842Z,55.76
2022-09-26T16:31:31.714Z,55.71
2022-09-26T16:33:59.078Z,56.83
2022-09-26T16:36:35.208Z,57.19
2022-09-26T16:39:05.444Z,57.04
2022-09-26T16:44:34.932Z,58.77
2022-09-26T16:47:04.723Z,57.54
2022-09-26T16:49:48.394Z,56.74
2022-09-26T16:52:20.694Z,56.71
2022-09-26T16:54:48.729Z,55.50
2022-09-26T16:57:22.433Z,55.59
2022-09-26T16:59:49.973Z,55.94
2022-09-26T17:02:17.101Z,56.94
2022-09-26T17:04:44.661Z,58.39
2022-09-26T17:07:14.371Z,57.94
2022-09-26T17:09:42.709Z,58.69
2022-09-26T17:12:17.665Z,58.75
2022-09-26T17:14:47.242Z,59.96
2022-09-26T17:17:16.540Z,60.32
2022-09-26T17:19:45.343Z,61.02
2022-09-26T17:22:17.060Z,62.78
2022-09-26T17:24:44.114Z,62.50
2022-09-26T17:27:16.465Z,62.54
2022-09-26T17:29:48.658Z,62.63
2022-09-26T17:32:28.249Z,63.56
2022-09-26T17:34:59.396Z,64.18
2022-09-26T17:37:27.841Z,64.79
2022-09-26T17:39:55.618Z,65.40
2022-09-26T17:42:23.977Z,67.04
2022-09-26T17:47:35.262Z,67.02
2022-09-26T17:50:01.977Z,67.12
2022-09-26T17:52:31.569Z,67.49
2022-09-26T17:55:02.260Z,67.75
2022-09-26T17:57:34.585Z,68.52
2022-09-26T18:00:05.980Z,67.79
2022-09-26T18:02:57.431Z,65.90
2022-09-26T18:05:28.482Z,67.00
2022-09-26T18:08:01.654Z,66.57
2022-09-26T18:10:33.137Z,65.49
2022-09-26T18:13:02.192Z,64.57
2022-09-26T18:15:29.738Z,65.41
2022-09-26T18:17:56.882Z,64.23
2022-09-26T18:20:33.095Z,64.74
2022-09-26T18:22:59.968Z,63.44
2022-09-26T18:25:26.612Z,63.62
2022-09-26T18:27:55.005Z,64.02
2022-09-26T18:30:21.940Z,63.98
2022-09-26T18:32:53.069Z,63.84
2022-09-26T18:35:24.692Z,63.94
2022-09-26T18:37:52.275Z,64.37
2022-09-26T18:40:18.783Z,65.41
2022-09-26T18:42:45.528Z,65.33
2022-09-26T18:45:15.161Z,65.94
2022-09-26T18:47:45.471Z,64.57
2022-09-26T18:50:26.027Z,65.42
2022-09-26T18:52:52.992Z,65.54
2022-09-26T18:55:43.983Z,66.20
2022-09-26T18:58:25.771Z,66.48
2022-09-26T19:01:02.129Z,66.89
2022-09-26T19:03:37.748Z,66.49
2022-09-26T19:06:12.930Z,66.04
2022-09-26T19:08:42.970Z,66.09
2022-09-26T19:11:21.451Z,65.79
2022-09-26T19:13:53.507Z,65.46
2022-09-26T19:16:20.992Z,65.89
2022-09-26T19:18:47.852Z,66.20
2022-09-26T19:21:42.019Z,66.39
2022-09-26T19:24:20.169Z,66.27
2022-09-26T19:26:51.615Z,66.16
2022-09-26T19:29:38.423Z,66.26
2022-09-26T19:32:06.372Z,66.07
2022-09-26T19:34:33.257Z,66.46
2022-09-26T19:37:01.473Z,67.37
2022-09-26T19:39:28.212Z,66.87
2022-09-26T19:41:54.773Z,67.09
2022-09-26T19:44:21.395Z,66.98
2022-09-26T19:46:47.951Z,67.82
2022-09-26T19:49:17.992Z,68.34
2022-09-26T19:51:44.942Z,67.44
2022-09-26T19:54:17.974Z,67.92
2022-09-26T19:56:45.782Z,68.11
2022-09-26T19:59:14.419Z,68.19
2022-09-26T20:01:43.044Z,68.39
2022-09-26T20:04:15.286Z,67.94
2022-09-26T20:06:41.956Z,67.50
2022-09-26T20:09:15.207Z,68.02
2022-09-26T20:11:41.756Z,68.09
2022-09-26T20:14:23.352Z,67.47
2022-09-26T20:17:23.140Z,67.12
2022-09-26T20:19:50.233Z,67.95
2022-09-26T20:22:20.839Z,67.53
2022-09-26T20:24:51.490Z,67.92
2022-09-26T20:27:24.304Z,67.99
2022-09-26T20:30:09.963Z,68.49
2022-09-26T20:32:37.310Z,68.35
2022-09-26T20:35:08.981Z,68.05
2022-09-26T20:37:39.888Z,68.28
2022-09-26T20:40:18.245Z,68.65
2022-09-26T20:42:50.749Z,68.48
2022-09-26T20:45:26.393Z,69.19
2022-09-26T20:47:52.959Z,68.59
2022-09-26T20:50:20.593Z,68.70
2022-09-26T20:52:47.111Z,69.30
2022-09-26T20:55:18.310Z,68.70
2022-09-26T20:57:45.557Z,68.20
2022-09-26T21:00:16.923Z,68.00
2022-09-26T21:02:44.547Z,67.89
2022-09-26T21:05:17.123Z,68.38
2022-09-26T21:07:43.918Z,66.74
2022-09-26T21:10:31.408Z,67.59
2022-09-26T21:12:59.382Z,67.27
2022-09-26T21:15:29.499Z,67.79
2022-09-26T21:17:56.290Z,67.78
2022-09-26T21:20:33.979Z,66.92
2022-09-26T21:23:01.900Z,68.54
2022-09-26T21:25:31.365Z,66.94
2022-09-26T21:28:11.285Z,67.72
2022-09-26T21:30:37.955Z,66.91
2022-09-26T21:33:04.544Z,68.14
2022-09-26T21:35:32.115Z,67.60
2022-09-26T21:38:00.994Z,68.12
2022-09-26T21:40:32.595Z,67.50
2022-09-26T21:43:05.597Z,67.30
2022-09-26T21:45:32.097Z,66.74
2022-09-26T21:47:58.619Z,67.86
2022-09-26T21:50:29.145Z,68.02
2022-09-26T21:53:05.725Z,67.24
2022-09-26T21:55:37.264Z,67.67
2022-09-26T21:58:13.031Z,67.25
2022-09-26T22:00:40.034Z,68.48
2022-09-26T22:03:07.048Z,67.54
2022-09-26T22:05:37.599Z,67.66
2022-09-26T22:08:04.280Z,67.45
2022-09-26T22:10:31.292Z,68.09
2022-09-26T22:12:58.220Z,69.07
2022-09-26T22:15:25.763Z,68.39
2022-09-26T22:17:53.327Z,68.99
2022-09-26T22:20:19.861Z,69.34
2022-09-26T22:22:46.469Z,69.39
2022-09-26T22:25:12.931Z,68.93
2022-09-26T22:27:39.961Z,69.62
2022-09-26T22:30:07.819Z,69.57
2022-09-26T22:32:34.273Z,68.49
2022-09-26T22:35:00.757Z,69.58
2022-09-26T22:37:27.608Z,69.09
2022-09-26T22:39:54.624Z,68.69
2022-09-26T22:42:21.182Z,69.51
2022-09-26T22:44:48.358Z,69.24
2022-09-26T22:47:14.926Z,69.15
2022-09-26T22:49:41.457Z,69.97
2022-09-26T22:52:08.037Z,70.13
2022-09-26T22:54:34.572Z,70.88
2022-09-26T22:57:01.072Z,70.43
2022-09-26T22:59:27.593Z,70.60
2022-09-26T23:01:56.538Z,70.21
2022-09-26T23:04:23.072Z,70.03
2022-09-26T23:06:49.560Z,70.54
2022-09-26T23:09:16.169Z,71.27
2022-09-26T23:11:43.203Z,71.08
2022-09-26T23:14:09.712Z,69.99
2022-09-26T23:16:36.356Z,69.66
2022-09-26T23:19:03.117Z,70.07
2022-09-26T23:21:29.580Z,70.57
2022-09-26T23:23:58.258Z,70.17
2022-09-26T23:26:30.226Z,69.60
2022-09-26T23:28:58.338Z,70.42
2022-09-26T23:31:26.802Z,70.09
2022-09-26T23:33:54.250Z,70.81
2022-09-26T23:36:21.051Z,70.47
2022-09-26T23:38:47.932Z,71.06
2022-09-26T23:41:14.564Z,70.81
2022-09-26T23:43:41.839Z,70.17
2022-09-26T23:46:09.010Z,70.73
2022-09-26T23:48:35.935Z,70.75
2022-09-26T23:51:02.991Z,71.75
2022-09-26T23:53:29.841Z,70.32
2022-09-26T23:56:08.958Z,70.87
2022-09-26T23:58:37.168Z,70.87
